ACA97 CYYT-EGLL
Flight info
| Callsign | ACA97 |
|---|---|
| Flight time | N/A |
| Altitude | 37000 |
| Route | JOOPY DCT 49N050W 51N040W 53N030W 54N020W DCT DOGAL/N0482F370 DCT BEXET/N0478F390 DCT CON DCT OLAPO DCT BOFUM Q37 MALUD Q38 NUGRA |
| Aircraft | A35K/H-SDE2E3GHIJ3J4J5LM1ORWXY/LB1D1 |
Departure
| Time | 2026-04-23 20:43 |
|---|---|
| Airport | St. John's International Airport (CYYT) |
Arrival
| Time | N/A |
|---|---|
| Airport | London Heathrow Airport (EGLL) |
| Time | Latitude | Longitude | Altitude | Speed | Heading |
|---|---|---|---|---|---|
| 2026-04-23 20:35 | 47.61246 | -52.73974 | 472 ft | 2 kts | 332° |
| 2026-04-23 20:35 | 47.61230 | -52.73967 | 472 ft | 2 kts | 354° |
| 2026-04-23 20:36 | 47.61223 | -52.73966 | 473 ft | 0 kts | 356° |
| 2026-04-23 20:36 | 47.61229 | -52.73966 | 472 ft | 3 kts | 356° |
| 2026-04-23 20:36 | 47.61233 | -52.73967 | 472 ft | 0 kts | 355° |
| 2026-04-23 20:38 | 47.61234 | -52.73967 | 480 ft | 1 kts | 356° |
| 2026-04-23 20:39 | 47.61287 | -52.73966 | 474 ft | 15 kts | 359° |
| 2026-04-23 20:39 | 47.61416 | -52.74157 | 477 ft | 52 kts | 293° |
| 2026-04-23 20:39 | 47.61640 | -52.74144 | 477 ft | 38 kts | 42° |
| 2026-04-23 20:39 | 47.61804 | -52.74131 | 477 ft | 5 kts | 47° |
| 2026-04-23 20:40 | 47.61780 | -52.74107 | 478 ft | 15 kts | 158° |
| 2026-04-23 20:40 | 47.61619 | -52.73904 | 482 ft | 41 kts | 96° |
| 2026-04-23 20:40 | 47.61749 | -52.73823 | 476 ft | 24 kts | 339° |
| 2026-04-23 20:40 | 47.62047 | -52.73903 | 476 ft | 61 kts | 354° |
| 2026-04-23 20:41 | 47.62437 | -52.73848 | 470 ft | 45 kts | 53° |
| 2026-04-23 20:41 | 47.62541 | -52.73918 | 478 ft | 4 kts | 275° |
| 2026-04-23 20:41 | 47.62541 | -52.73919 | 478 ft | 0 kts | 274° |
| 2026-04-23 20:42 | 47.62538 | -52.73951 | 478 ft | 22 kts | 262° |
| 2026-04-23 20:42 | 47.62485 | -52.74663 | 492 ft | 113 kts | 266° |
| 2026-04-23 20:42 | 47.62412 | -52.76192 | 583 ft | 177 kts | 266° |
| 2026-04-23 20:43 | 47.62325 | -52.77933 | 1675 ft | 174 kts | 265° |
| 2026-04-23 20:43 | 47.62209 | -52.79858 | 2165 ft | 202 kts | 268° |
| 2026-04-23 20:43 | 47.62427 | -52.82025 | 2744 ft | 223 kts | 290° |
| 2026-04-23 20:43 | 47.63413 | -52.83855 | 3626 ft | 237 kts | 324° |
| 2026-04-23 20:44 | 47.65015 | -52.84494 | 4594 ft | 251 kts | 358° |
| 2026-04-23 20:44 | 47.66734 | -52.83837 | 5507 ft | 262 kts | 21° |
| 2026-04-23 20:44 | 47.68343 | -52.82428 | 6371 ft | 272 kts | 32° |
| 2026-04-23 20:44 | 47.69859 | -52.80695 | 7219 ft | 278 kts | 37° |
| 2026-04-23 20:45 | 47.71376 | -52.78844 | 8043 ft | 285 kts | 38° |
| 2026-04-23 20:45 | 47.72919 | -52.77010 | 8926 ft | 290 kts | 37° |
| 2026-04-23 20:45 | 47.74548 | -52.75179 | 9724 ft | 298 kts | 35° |
| 2026-04-23 20:45 | 47.76306 | -52.73317 | 10116 ft | 319 kts | 33° |
| 2026-04-23 20:46 | 47.78207 | -52.71406 | 10467 ft | 340 kts | 32° |
| 2026-04-23 20:46 | 47.80220 | -52.69445 | 10832 ft | 357 kts | 32° |
| 2026-04-23 20:46 | 47.82344 | -52.67396 | 11452 ft | 366 kts | 32° |
| 2026-04-23 20:46 | 47.84497 | -52.65319 | 12185 ft | 370 kts | 33° |
| 2026-04-23 20:47 | 47.86671 | -52.63213 | 12982 ft | 374 kts | 33° |
| 2026-04-23 20:47 | 47.88843 | -52.61090 | 13699 ft | 379 kts | 33° |
| 2026-04-23 20:47 | 47.91056 | -52.58912 | 14323 ft | 383 kts | 34° |
| 2026-04-23 20:47 | 47.93296 | -52.56702 | 14983 ft | 387 kts | 34° |
| 2026-04-23 20:48 | 47.95550 | -52.54473 | 15636 ft | 391 kts | 34° |
| 2026-04-23 20:48 | 47.97829 | -52.52218 | 16296 ft | 395 kts | 34° |
| 2026-04-23 20:48 | 48.00136 | -52.49935 | 16955 ft | 399 kts | 34° |
| 2026-04-23 20:48 | 48.02460 | -52.47633 | 17617 ft | 403 kts | 34° |
| 2026-04-23 20:49 | 48.04805 | -52.45312 | 18313 ft | 403 kts | 36° |
| 2026-04-23 20:49 | 48.07125 | -52.43012 | 18949 ft | 404 kts | 37° |
| 2026-04-23 20:49 | 48.09484 | -52.40668 | 19513 ft | 407 kts | 37° |
| 2026-04-23 20:49 | 48.11855 | -52.38309 | 20073 ft | 410 kts | 37° |
| 2026-04-23 20:50 | 48.14238 | -52.35935 | 20642 ft | 413 kts | 38° |
| 2026-04-23 20:50 | 48.16609 | -52.33571 | 21199 ft | 415 kts | 38° |
| 2026-04-23 20:50 | 48.19030 | -52.31155 | 21723 ft | 417 kts | 39° |
| 2026-04-23 20:50 | 48.21453 | -52.28735 | 22289 ft | 420 kts | 39° |
| 2026-04-23 20:51 | 48.23890 | -52.26304 | 22927 ft | 418 kts | 41° |
| 2026-04-23 20:51 | 48.26306 | -52.23895 | 23552 ft | 417 kts | 41° |
| 2026-04-23 20:51 | 48.28703 | -52.21491 | 23905 ft | 421 kts | 41° |
| 2026-04-23 20:51 | 48.31152 | -52.19024 | 24269 ft | 424 kts | 41° |
| 2026-04-23 20:52 | 48.33610 | -52.16547 | 24658 ft | 427 kts | 41° |
| 2026-04-23 20:52 | 48.36091 | -52.14048 | 25054 ft | 430 kts | 41° |
| 2026-04-23 20:52 | 48.38564 | -52.11555 | 25459 ft | 433 kts | 41° |
| 2026-04-23 20:52 | 48.41074 | -52.09025 | 25872 ft | 435 kts | 42° |
| 2026-04-23 20:53 | 48.43601 | -52.06477 | 26299 ft | 436 kts | 42° |
| 2026-04-23 20:53 | 48.46078 | -52.03832 | 26754 ft | 434 kts | 46° |
| 2026-04-23 20:53 | 48.48307 | -52.00782 | 27170 ft | 429 kts | 54° |
| 2026-04-23 20:53 | 48.50183 | -51.97312 | 27606 ft | 424 kts | 62° |
| 2026-04-23 20:54 | 48.51678 | -51.93565 | 28063 ft | 421 kts | 69° |
| 2026-04-23 20:54 | 48.52929 | -51.89569 | 28553 ft | 421 kts | 73° |
| 2026-04-23 20:54 | 48.54027 | -51.85457 | 29027 ft | 423 kts | 75° |
| 2026-04-23 20:54 | 48.55058 | -51.81277 | 29502 ft | 426 kts | 76° |
| 2026-04-23 20:55 | 48.56081 | -51.77050 | 29962 ft | 430 kts | 76° |
| 2026-04-23 20:55 | 48.57123 | -51.72780 | 30256 ft | 436 kts | 75° |
| 2026-04-23 20:55 | 48.58185 | -51.68510 | 30574 ft | 442 kts | 75° |
| 2026-04-23 20:55 | 48.59284 | -51.64160 | 30963 ft | 446 kts | 74° |
| 2026-04-23 20:56 | 48.60410 | -51.59756 | 31391 ft | 449 kts | 74° |
| 2026-04-23 20:56 | 48.61544 | -51.55337 | 31784 ft | 452 kts | 74° |
| 2026-04-23 20:56 | 48.62687 | -51.50888 | 32170 ft | 455 kts | 74° |
| 2026-04-23 20:56 | 48.63841 | -51.46384 | 32531 ft | 459 kts | 74° |
| 2026-04-23 20:57 | 48.64992 | -51.41882 | 32932 ft | 460 kts | 73° |
| 2026-04-23 20:57 | 48.66133 | -51.37410 | 33439 ft | 460 kts | 73° |
| 2026-04-23 20:57 | 48.67280 | -51.32902 | 33887 ft | 459 kts | 73° |